Accueil
METAR-TAF:

METAR-TAF

Aéroports :

Aéroport international de Chongqing-Jiangbei

Chongqing, Chine

latitude: 29-31N, longitude: 106-29E, altitude: 351 m

Observation

Le bulletin a été fait il y a 1 heure et 14 minutes, à 16:00 UTC
Vent 8 kt de nord/nord-est
Température 12°C
Humidité 82%
Pression 1021 hPa
Visibilité: 8000 m
Quelques nuages à une hauteur de 4000 ft

METAR: ZUCK 211600Z 02004MPS 8000 FEW040 12/09 Q1021 NOSIG

Heure: 01:14 (17:14 UTC)

Prévision

Le bulletin a été fait il y a 8 heures et 13 minutes, à 09:01 UTC
Prévision valable du 21 à 12 UTC au 22 à 12 UTC
Vent 6 kt de est
Visibilité: 3500 m
Nuages épars à une hauteur de 3000 ft
brume

TAF: ZUCK 210901Z 2112/2212 08003MPS 3500 BR SCT030 TX14/2208Z TN10/2122Z

Observations et prévisions météorologiques de plus de 4000 aéroports (messages METAR et TAF).

Les stations disponibles sont représentées par des disques jaunes et rouges sur la carte.

Passer la souris dessus pour voir le nom de la station.

Cliquer dessus pour voir les observations et prévisions météorologiques.

Pour changer de carte: cliquez sur les boutons verts avec une croix noire pour zoomer, sur le bouton vert avec un tiret pour effectuer un zoom arrière, ou sur les flèches vertes pour les cartes adjacentes.


METAR-TAF: